Time;durP1;ratioP1;P1;durP2;ratioP2;P2;SDS_P1;SDS_P2;PMS_P1;PMS_P2;Temp;Humidity;BMP_temperature;BMP_pressure;BME280_temperature;BME280_humidity;BME280_pressure;Samples;Min_cycle;Max_cycle;Signal;HPM_P1;HPM_P2
2023/02/05 00:02:51;;;;;;;8.23;7.38;;;;;;;6.07;64.16;102268.81;10249039;28;20054;-48
2023/02/05 00:07:52;;;;;;;8.90;7.30;;;;;;;6.02;64.17;102260.19;10246447;28;20058;-47
2023/02/05 00:12:53;;;;;;;9.15;6.45;;;;;;;6.03;64.40;102250.47;10248225;28;20246;-50
2023/02/05 00:17:55;;;;;;;8.90;6.63;;;;;;;6.03;64.98;102250.47;10251123;28;20069;-49
2023/02/05 00:22:56;;;;;;;7.40;5.97;;;;;;;6.02;64.78;102246.97;10251606;28;20046;-46
2023/02/05 00:27:58;;;;;;;9.68;6.30;;;;;;;6.05;64.87;102253.91;10246334;28;20137;-47
2023/02/05 00:33:00;;;;;;;7.38;6.03;;;;;;;6.19;64.88;102254.38;10248508;28;20124;-45
2023/02/05 00:38:01;;;;;;;8.05;6.25;;;;;;;6.23;64.28;102242.81;10252734;28;20051;-47
2023/02/05 00:43:03;;;;;;;10.25;5.93;;;;;;;6.24;64.34;102249.81;10252374;28;20054;-46
2023/02/05 00:48:04;;;;;;;9.05;6.20;;;;;;;6.13;64.42;102236.91;10250471;28;20057;-46
2023/02/05 00:53:06;;;;;;;7.72;6.25;;;;;;;6.03;64.77;102232.81;10250285;28;20054;-47
2023/02/05 00:58:07;;;;;;;9.52;6.68;;;;;;;5.98;65.08;102240.88;10250732;28;20043;-47
2023/02/05 01:03:09;;;;;;;7.20;5.88;;;;;;;5.86;65.16;102232.41;10248481;28;20055;-46
2023/02/05 01:08:12;;;;;;;8.57;5.72;;;;;;;5.78;65.61;102229.97;10245498;28;20058;-46
2023/02/05 01:13:14;;;;;;;7.40;5.40;;;;;;;5.66;65.84;102220.66;10248721;28;20054;-47
2023/02/05 01:18:18;;;;;;;8.07;6.03;;;;;;;5.57;66.18;102203.28;10255388;28;20051;-46
2023/02/05 01:23:20;;;;;;;6.13;5.45;;;;;;;5.54;66.27;102206.00;10246519;28;20046;-46
2023/02/05 01:28:21;;;;;;;5.65;5.05;;;;;;;5.52;66.96;102202.53;10244157;28;20087;-48
2023/02/05 01:33:22;;;;;;;6.18;5.13;;;;;;;5.76;66.29;102200.09;10255270;28;20055;-46
2023/02/05 01:38:24;;;;;;;6.38;5.60;;;;;;;5.52;66.06;102191.09;10251133;28;20050;-46
2023/02/05 01:43:25;;;;;;;5.63;5.07;;;;;;;5.56;66.59;102200.69;10248134;28;20069;-47
2023/02/05 01:48:36;;;;;;;8.85;6.65;;;;;;;5.57;66.54;102190.06;10253952;28;20103;-47
2023/02/05 01:53:39;;;;;;;6.13;5.53;;;;;;;5.55;66.99;102168.09;10250204;28;20046;-47
2023/02/05 01:58:46;;;;;;;6.10;5.50;;;;;;;5.52;67.23;102164.69;10251949;28;20197;-47
2023/02/05 02:03:49;;;;;;;6.90;5.82;;;;;;;5.52;67.36;102170.81;10253775;28;20046;-47
2023/02/05 02:08:51;;;;;;;6.43;5.55;;;;;;;5.59;67.35;102164.47;10246719;28;20043;-47
2023/02/05 02:13:55;;;;;;;6.68;5.30;;;;;;;5.52;67.04;102139.13;10247711;28;20057;-47
2023/02/05 02:18:56;;;;;;;7.38;5.47;;;;;;;5.66;66.78;102163.38;10249609;28;20054;-47
2023/02/05 02:24:34;;;;;;;7.13;6.40;;;;;;;5.59;67.10;102147.75;10247880;28;20060;-47
2023/02/05 02:29:38;;;;;;;7.97;5.63;;;;;;;5.62;67.39;102145.88;10242948;28;20058;-47
2023/02/05 02:34:47;;;;;;;7.82;5.75;;;;;;;5.70;67.16;102152.72;10247408;28;20149;-49
2023/02/05 02:39:59;;;;;;;6.95;4.85;;;;;;;5.71;66.53;102126.25;10251469;28;20133;-47
2023/02/05 02:45:06;;;;;;;6.85;5.30;;;;;;;5.57;66.97;102116.09;10233625;28;20046;-47
2023/02/05 02:50:17;;;;;;;6.55;5.20;;;;;;;5.64;67.23;102122.94;10245291;28;20061;-48
2023/02/05 02:55:21;;;;;;;6.35;5.10;;;;;;;5.68;66.94;102122.84;10247074;28;20594;-47
2023/02/05 03:00:25;;;;;;;5.68;4.90;;;;;;;5.65;66.98;102108.78;10249875;28;20126;-47
2023/02/05 03:05:28;;;;;;;6.90;5.40;;;;;;;5.63;67.54;102110.63;10249670;28;22246;-47
2023/02/05 03:10:41;;;;;;;7.40;4.95;;;;;;;5.65;67.09;102103.50;10252437;28;20411;-47
2023/02/05 03:15:43;;;;;;;5.35;4.15;;;;;;;5.63;67.40;102105.34;10247848;28;20616;-46
2023/02/05 03:20:59;;;;;;;9.23;4.65;;;;;;;5.55;67.16;102091.47;10252757;28;20059;-50
2023/02/05 03:26:00;;;;;;;;;;;;;;;5.63;66.89;102089.50;10251918;28;20050;-46
2023/02/05 03:31:18;;;;;;;5.03;4.00;;;;;;;5.60;67.63;102094.88;10253973;28;19926;-46
2023/02/05 03:37:02;;;;;;;5.53;3.42;;;;;;;5.54;67.69;102079.19;10266984;28;20097;-46
2023/02/05 03:42:14;;;;;;;4.32;3.83;;;;;;;5.58;68.19;102079.97;10233380;28;20058;-47
2023/02/05 03:47:32;;;;;;;5.13;3.70;;;;;;;5.60;68.24;102073.72;10250861;28;20434;-46
2023/02/05 03:52:39;;;;;;;4.60;3.65;;;;;;;5.55;67.90;102067.69;10252103;28;20047;-47
2023/02/05 03:57:53;;;;;;;4.82;3.33;;;;;;;5.54;68.09;102079.19;10252700;28;20043;-47
2023/02/05 04:02:56;;;;;;;7.33;3.60;;;;;;;5.35;68.35;102067.47;10251503;28;20042;-46
2023/02/05 04:07:57;;;;;;;5.22;4.25;;;;;;;5.57;68.91;102102.88;10247889;28;20051;-47
2023/02/05 04:12:58;;;;;;;3.85;3.20;;;;;;;5.62;69.05;102086.88;10252816;28;20059;-47
2023/02/05 04:18:00;;;;;;;3.97;3.30;;;;;;;5.80;68.49;102090.75;10244975;28;20138;-46
2023/02/05 04:23:01;;;;;;;3.80;3.40;;;;;;;5.82;68.92;102094.19;10241866;28;20786;-46
2023/02/05 04:28:04;;;;;;;4.88;3.20;;;;;;;5.75;67.83;102080.31;10246680;28;20954;-46
2023/02/05 04:33:05;;;;;;;5.53;3.75;;;;;;;5.71;67.49;102096.31;10246409;28;20477;-46
2023/02/05 04:38:08;;;;;;;3.45;3.15;;;;;;;5.62;67.44;102082.47;10249625;28;20661;-46
2023/02/05 04:43:10;;;;;;;4.88;4.15;;;;;;;5.64;68.70;102078.00;10239487;28;20054;-47
2023/02/05 04:48:11;;;;;;;4.82;4.32;;;;;;;5.64;68.52;102051.59;10243331;28;20546;-53
2023/02/05 04:53:13;;;;;;;6.85;4.57;;;;;;;5.60;68.95;102043.78;10245281;28;20053;-46
2023/02/05 04:58:14;;;;;;;4.60;3.70;;;;;;;5.64;69.43;102056.00;10245056;28;20201;-46
2023/02/05 05:03:16;;;;;;;4.72;4.20;;;;;;;5.65;69.18;102053.31;10243483;28;20047;-47
2023/02/05 05:08:20;;;;;;;5.28;4.60;;;;;;;5.62;68.95;102056.03;10250294;28;20150;-47
2023/02/05 05:13:21;;;;;;;6.70;4.53;;;;;;;5.66;69.17;102068.25;10246241;28;20101;-47
2023/02/05 05:18:23;;;;;;;6.00;4.63;;;;;;;5.65;69.16;102077.09;10254115;28;20046;-47
2023/02/05 05:23:24;;;;;;;6.90;4.88;;;;;;;5.79;69.05;102078.44;10257811;28;20788;-47
2023/02/05 05:28:26;;;;;;;6.80;5.22;;;;;;;5.84;68.92;102077.38;10250134;28;20054;-47
2023/02/05 05:33:27;;;;;;;6.80;4.60;;;;;;;5.87;68.51;102079.06;10254750;28;20070;-47
2023/02/05 05:38:29;;;;;;;5.68;4.57;;;;;;;5.80;68.62;102080.19;10256317;28;20522;-47
2023/02/05 05:43:45;;;;;;;7.30;5.57;;;;;;;5.79;69.18;102075.78;10253234;28;20066;-47
2023/02/05 05:48:55;;;;;;;7.15;5.65;;;;;;;5.77;70.17;102075.00;10252425;28;20043;-47
2023/02/05 05:53:57;;;;;;;7.18;5.47;;;;;;;5.70;70.39;102068.16;10250810;28;20050;-47
2023/02/05 05:58:58;;;;;;;6.93;6.22;;;;;;;5.65;70.92;102077.09;10254742;28;20055;-47
2023/02/05 06:04:00;;;;;;;9.77;7.35;;;;;;;5.59;71.28;102093.13;10257624;28;20192;-47
2023/02/05 06:09:04;;;;;;;8.60;6.40;;;;;;;5.62;72.45;102103.59;10254603;28;20050;-48
2023/02/05 06:14:05;;;;;;;6.80;6.05;;;;;;;5.58;73.12;102091.38;10256196;28;20213;-48
2023/02/05 06:19:07;;;;;;;7.60;6.88;;;;;;;5.54;73.11;102078.31;10253067;28;20170;-48
2023/02/05 06:24:08;;;;;;;5.75;5.15;;;;;;;5.53;74.21;102066.91;10254718;28;20045;-47
2023/02/05 06:29:09;;;;;;;6.47;4.80;;;;;;;5.49;75.01;102055.56;10255953;28;20062;-47
2023/02/05 06:34:11;;;;;;;6.43;4.72;;;;;;;5.44;75.80;102052.19;10250816;28;20137;-48
2023/02/05 06:39:12;;;;;;;5.18;4.68;;;;;;;5.41;76.51;102051.44;10254839;28;20671;-48
2023/02/05 06:44:14;;;;;;;4.57;4.07;;;;;;;5.38;77.08;102040.97;10251371;28;20074;-47
2023/02/05 06:49:15;;;;;;;7.55;4.78;;;;;;;5.36;77.54;102048.03;10254511;28;20061;-46
2023/02/05 06:54:16;;;;;;;4.78;4.35;;;;;;;5.28;77.58;102054.44;10245748;28;20071;-46
2023/02/05 06:59:18;;;;;;;6.03;4.40;;;;;;;5.40;77.89;102066.38;10235404;28;20046;-47
2023/02/05 07:04:20;;;;;;;4.97;4.57;;;;;;;5.46;77.74;102068.00;10230344;28;20069;-46
2023/02/05 07:09:21;;;;;;;5.18;4.63;;;;;;;5.49;77.63;102081.09;10236424;28;20066;-47
2023/02/05 07:14:23;;;;;;;4.57;4.15;;;;;;;5.57;77.81;102080.88;10232786;28;20477;-47
2023/02/05 07:19:24;;;;;;;5.15;4.30;;;;;;;5.66;77.94;102099.09;10237302;28;20150;-46
2023/02/05 07:24:26;;;;;;;5.45;4.18;;;;;;;5.53;79.01;102064.25;10239480;28;20055;-47
2023/02/05 07:29:27;;;;;;;6.28;4.10;;;;;;;5.34;79.05;102034.88;10236732;28;20250;-46
2023/02/05 07:34:29;;;;;;;5.85;4.57;;;;;;;5.19;80.63;102038.00;10235685;28;20055;-47
2023/02/05 07:39:32;;;;;;;5.57;4.30;;;;;;;5.10;81.30;102002.16;10239702;28;20046;-47
2023/02/05 07:44:33;;;;;;;5.18;4.20;;;;;;;5.06;82.19;101989.94;10240406;28;20046;-47
2023/02/05 07:49:35;;;;;;;7.18;4.85;;;;;;;5.02;82.97;101990.97;10239993;28;20140;-47
2023/02/05 07:54:37;;;;;;;7.00;5.82;;;;;;;5.14;83.32;102038.13;10240139;28;20061;-47
2023/02/05 07:59:38;;;;;;;6.88;6.18;;;;;;;5.21;82.97;102030.88;10240663;28;20168;-48
2023/02/05 08:04:39;;;;;;;7.38;6.55;;;;;;;5.27;83.32;102028.94;10235075;28;20145;-47
2023/02/05 08:09:41;;;;;;;12.55;6.95;;;;;;;5.35;83.10;102026.06;10239287;28;20542;-47
2023/02/05 08:14:42;;;;;;;9.20;7.35;;;;;;;5.46;82.70;102008.13;10242719;28;20503;-47
2023/02/05 08:19:44;;;;;;;13.45;8.48;;;;;;;5.51;82.72;102015.91;10243617;28;20204;-48
2023/02/05 08:24:45;;;;;;;13.05;8.35;;;;;;;5.49;83.05;102001.84;10232629;28;20403;-47
2023/02/05 08:29:47;;;;;;;9.88;8.85;;;;;;;5.45;82.98;102000.22;10250204;28;20383;-47
2023/02/05 08:34:49;;;;;;;12.45;8.63;;;;;;;5.27;84.33;101994.59;10239088;28;20077;-47
2023/02/05 08:39:51;;;;;;;11.18;9.25;;;;;;;5.28;84.58;102003.38;10236584;28;20077;-47
2023/02/05 08:44:54;;;;;;;11.95;9.82;;;;;;;5.29;84.57;102008.63;10236348;28;20104;-47
2023/02/05 08:49:56;;;;;;;11.88;8.38;;;;;;;5.31;84.41;101998.88;10241620;28;20046;-47
2023/02/05 08:54:57;;;;;;;11.32;8.82;;;;;;;5.25;84.74;101991.13;10239777;28;20240;-47
2023/02/05 08:59:59;;;;;;;11.00;9.60;;;;;;;5.19;84.82;101991.31;10242634;28;20130;-47
2023/02/05 09:05:00;;;;;;;13.52;9.77;;;;;;;5.20;84.78;101984.28;10234766;28;20047;-47
2023/02/05 09:10:11;;;;;;;10.13;8.68;;;;;;;5.19;85.60;101966.69;10231650;28;20080;-47
2023/02/05 09:15:13;;;;;;;12.43;8.50;;;;;;;5.37;84.70;101957.34;10233173;28;20860;-47
2023/02/05 09:20:15;;;;;;;10.30;8.43;;;;;;;5.29;84.17;101953.16;10238996;28;20093;-47
2023/02/05 09:25:16;;;;;;;14.10;9.15;;;;;;;5.35;84.49;101953.91;10233817;28;20055;-48
2023/02/05 09:30:17;;;;;;;9.70;8.70;;;;;;;5.42;84.38;101958.06;10235312;28;20059;-47
2023/02/05 09:35:19;;;;;;;11.68;9.15;;;;;;;5.35;84.71;101956.53;10236384;28;20063;-48
2023/02/05 09:40:23;;;;;;;12.77;10.38;;;;;;;5.43;84.45;101959.78;10234174;28;20053;-48
2023/02/05 09:45:35;;;;;;;11.45;10.30;;;;;;;5.56;83.79;101955.00;10251304;28;20071;-46
2023/02/05 09:50:40;;;;;;;16.65;10.40;;;;;;;5.61;83.65;101959.19;10234140;28;20102;-48
2023/02/05 09:55:44;;;;;;;16.05;11.13;;;;;;;5.53;84.71;101948.03;10242039;28;20099;-47
2023/02/05 10:00:53;;;;;;;12.88;9.48;;;;;;;5.60;85.43;101925.78;10240463;28;20057;-46
2023/02/05 10:06:01;;;;;;;13.23;10.35;;;;;;;5.73;83.86;101939.44;10247789;28;21001;-47
2023/02/05 10:11:08;;;;;;;12.75;11.32;;;;;;;5.57;85.04;101935.56;10240362;28;20050;-47
2023/02/05 10:16:45;;;;;;;13.27;10.82;;;;;;;5.47;85.94;101932.38;10241172;28;20404;-46
2023/02/05 10:22:09;;;;;;;13.75;11.98;;;;;;;5.59;86.38;101929.31;10227574;28;20061;-46
2023/02/05 10:27:17;;;;;;;15.23;12.60;;;;;;;5.68;85.79;101927.31;10236914;28;20054;-51
2023/02/05 10:32:24;;;;;;;27.05;24.25;;;;;;;5.62;85.80;101925.72;10243199;28;20168;-47
2023/02/05 10:37:40;;;;;;;30.67;27.38;;;;;;;5.68;85.55;101922.88;10239838;28;20069;-47
2023/02/05 10:43:17;;;;;;;35.75;32.50;;;;;;;5.72;86.25;101911.31;10239573;28;20186;-48
2023/02/05 10:48:32;;;;;;;37.38;33.60;;;;;;;5.61;86.37;101916.91;10240634;28;20133;-47
2023/02/05 10:53:35;;;;;;;18.70;16.80;;;;;;;5.63;86.94;101914.22;10237916;28;20059;-47
2023/02/05 10:58:46;;;;;;;14.85;13.43;;;;;;;5.78;87.22;101907.56;10245310;28;20148;-47
2023/02/05 11:04:02;;;;;;;15.45;13.85;;;;;;;5.79;85.88;101898.72;10239664;28;20057;-47
2023/02/05 11:09:23;;;;;;;14.13;12.05;;;;;;;5.79;86.16;101893.44;10237323;28;20047;-48
2023/02/05 11:14:33;;;;;;;13.60;11.63;;;;;;;5.85;86.50;101893.22;10240075;28;20058;-47
2023/02/05 11:19:34;;;;;;;13.88;12.48;;;;;;;5.90;86.82;101890.44;10234944;28;20042;-48
2023/02/05 11:24:39;;;;;;;15.65;13.85;;;;;;;5.88;86.73;101885.19;10241205;28;20046;-47
2023/02/05 11:29:41;;;;;;;12.52;11.23;;;;;;;5.99;87.56;101871.63;10240278;28;20433;-48
2023/02/05 11:34:42;;;;;;;12.43;11.23;;;;;;;6.06;86.35;101867.00;10243519;28;20053;-47
2023/02/05 11:39:52;;;;;;;12.90;11.45;;;;;;;6.13;86.20;101865.88;10238803;28;20054;-47
2023/02/05 11:44:57;;;;;;;12.52;11.23;;;;;;;6.29;85.94;101867.03;10237142;28;20047;-48
2023/02/05 11:49:59;;;;;;;;;;;;;;;6.21;85.59;101861.16;10236622;28;20051;-48
2023/02/05 11:55:02;;;;;;;14.55;11.60;;;;;;;6.14;86.67;101868.47;10238167;28;20046;-48
2023/02/05 12:00:14;;;;;;;13.05;11.65;;;;;;;6.19;86.05;101865.66;10236395;28;21188;-47
2023/02/05 12:05:18;;;;;;;13.65;11.35;;;;;;;6.21;86.80;101874.38;10250244;28;20077;-47
2023/02/05 12:10:50;;;;;;;14.18;12.07;;;;;;;6.19;87.13;101865.66;10249561;28;20442;-47
2023/02/05 12:16:10;;;;;;;12.70;11.40;;;;;;;6.24;86.72;101863.69;10233024;28;20057;-47
2023/02/05 12:21:47;;;;;;;13.15;11.63;;;;;;;6.25;85.97;101862.78;10238395;28;20069;-48
2023/02/05 12:26:56;;;;;;;11.82;10.73;;;;;;;6.15;86.67;101859.59;10235032;28;20611;-46
2023/02/05 12:32:07;;;;;;;14.43;12.15;;;;;;;6.32;87.73;101861.63;10238176;28;20046;-46
2023/02/05 12:37:43;;;;;;;13.57;12.32;;;;;;;6.33;86.47;101852.75;10241276;28;20058;-47
2023/02/05 12:43:10;;;;;;;13.68;12.48;;;;;;;6.47;86.71;101857.56;10214361;28;20725;-48
2023/02/05 12:48:31;;;;;;;13.10;11.77;;;;;;;6.57;86.10;101850.13;10237565;28;20062;-48
2023/02/05 12:53:50;;;;;;;12.85;11.40;;;;;;;6.65;85.35;101849.81;10244258;28;20551;-47
2023/02/05 12:59:00;;;;;;;16.30;14.80;;;;;;;6.65;85.69;101839.22;10248153;28;20062;-47
2023/02/05 13:04:02;;;;;;;13.30;12.02;;;;;;;6.71;85.50;101844.28;10242924;28;20746;-47
2023/02/05 13:09:15;;;;;;;12.32;11.23;;;;;;;6.73;86.20;101838.03;10244707;28;20050;-48
2023/02/05 13:14:20;;;;;;;13.05;11.75;;;;;;;6.77;85.57;101830.84;10251153;28;20117;-49
2023/02/05 13:19:28;;;;;;;12.52;11.27;;;;;;;6.80;85.10;101824.53;10252805;28;20047;-46
2023/02/05 13:29:58;;;;;;;12.45;11.18;;;;;;;7.08;84.59;101825.16;10258162;28;20051;-50
2023/02/05 13:35:00;;;;;;;12.10;10.95;;;;;;;7.06;84.01;101811.13;10263516;28;20050;-47
2023/02/05 13:40:14;;;;;;;11.10;10.15;;;;;;;7.05;84.02;101813.84;10261419;28;20081;-47
2023/02/05 13:45:40;;;;;;;12.65;11.40;;;;;;;6.96;83.75;101793.88;10259474;28;20050;-47
2023/02/05 13:50:58;;;;;;;12.23;11.02;;;;;;;6.96;84.87;101801.81;10255419;28;20124;-47
2023/02/05 13:56:29;;;;;;;10.65;9.65;;;;;;;7.00;84.38;101821.13;10256506;28;20611;-54
2023/02/05 14:01:39;;;;;;;10.55;9.65;;;;;;;7.00;84.08;101832.56;10254633;28;20141;-47
2023/02/05 14:06:45;;;;;;;11.40;10.32;;;;;;;6.94;84.56;101838.09;10263559;28;20051;-46
2023/02/05 14:11:46;;;;;;;10.45;9.45;;;;;;;7.01;84.16;101846.66;10261244;28;20188;-46
2023/02/05 14:16:48;;;;;;;9.43;8.63;;;;;;;7.03;83.78;101847.47;10265839;28;20806;-47
2023/02/05 14:22:00;;;;;;;10.30;9.20;;;;;;;7.04;84.09;101852.69;10260696;28;20704;-47
2023/02/05 14:27:02;;;;;;;9.57;8.68;;;;;;;7.01;84.73;101866.06;10277108;28;20429;-46
2023/02/05 14:32:03;;;;;;;10.55;9.65;;;;;;;6.95;85.00;101865.44;10259499;28;20054;-47
2023/02/05 14:37:23;;;;;;;9.65;8.68;;;;;;;6.91;85.86;101872.63;10259727;28;20677;-51
2023/02/05 14:42:28;;;;;;;8.43;7.63;;;;;;;6.97;85.41;101869.75;10264976;28;20051;-46
2023/02/05 14:47:34;;;;;;;8.45;7.47;;;;;;;7.01;84.90;101873.13;10258558;28;20046;-46
2023/02/05 14:52:41;;;;;;;9.30;8.40;;;;;;;6.99;84.85;101880.28;10261626;28;20049;-46
2023/02/05 14:57:55;;;;;;;8.40;7.60;;;;;;;6.94;84.65;101896.34;10259604;28;20165;-47
2023/02/05 15:02:56;;;;;;;7.80;7.00;;;;;;;6.85;84.69;101912.59;10273295;28;20042;-47
2023/02/05 15:08:28;;;;;;;7.35;6.65;;;;;;;6.80;84.30;101919.81;10260001;28;20983;-46
2023/02/05 15:13:30;;;;;;;8.27;7.57;;;;;;;6.80;84.77;101917.19;10257164;28;20120;-46
2023/02/05 15:18:37;;;;;;;8.20;7.45;;;;;;;6.81;84.45;101926.84;10256233;28;20060;-48
2023/02/05 15:23:42;;;;;;;9.15;8.25;;;;;;;6.78;84.59;101924.31;10257109;28;20695;-48
2023/02/05 15:28:55;;;;;;;9.80;8.82;;;;;;;6.79;84.74;101923.41;10260361;28;20068;-52
2023/02/05 15:34:05;;;;;;;8.80;7.72;;;;;;;6.72;84.89;101936.00;10254921;28;20086;-46
2023/02/05 15:39:28;;;;;;;9.05;8.25;;;;;;;6.73;85.50;101941.25;10256567;28;20049;-46
2023/02/05 15:44:32;;;;;;;9.43;8.52;;;;;;;6.66;84.97;101960.91;10254834;28;20046;-48
2023/02/05 15:49:39;;;;;;;10.00;9.10;;;;;;;6.68;84.51;101955.56;10272302;28;20053;-47
2023/02/05 15:54:40;;;;;;;10.05;9.15;;;;;;;6.61;85.45;101962.88;10252177;28;20059;-47
2023/02/05 15:59:41;;;;;;;9.73;8.82;;;;;;;6.57;85.56;101966.53;10254979;28;20049;-47
2023/02/05 16:04:43;;;;;;;9.48;8.65;;;;;;;6.58;85.07;101962.97;10253258;28;20674;-47
2023/02/05 16:09:47;;;;;;;8.60;7.75;;;;;;;6.53;85.57;101976.38;10253402;28;20057;-47
2023/02/05 16:14:59;;;;;;;8.57;7.78;;;;;;;6.54;85.45;101982.53;10255604;28;20051;-46
2023/02/05 16:20:13;;;;;;;9.27;8.38;;;;;;;6.53;85.03;101996.66;10253031;28;21003;-48
2023/02/05 16:25:27;;;;;;;9.00;8.20;;;;;;;6.50;85.58;101996.78;10253214;28;20042;-47
2023/02/05 16:30:39;;;;;;;9.73;8.82;;;;;;;6.42;85.25;102005.00;10256117;28;20049;-46
2023/02/05 16:35:45;;;;;;;10.48;9.52;;;;;;;6.37;86.18;102012.22;10253180;28;20483;-47
2023/02/05 16:40:50;;;;;;;9.65;8.65;;;;;;;6.44;85.34;102034.03;10248687;28;20057;-47
2023/02/05 16:46:07;;;;;;;9.88;8.98;;;;;;;6.40;86.29;102050.94;10237725;28;20050;-46
2023/02/05 16:51:54;;;;;;;10.75;9.60;;;;;;;6.37;86.85;102055.41;10233643;28;20895;-47
2023/02/05 16:57:11;;;;;;;9.23;8.40;;;;;;;6.48;86.04;102062.13;10237841;28;20065;-48
2023/02/05 17:02:26;;;;;;;8.68;7.93;;;;;;;6.54;84.87;102059.25;10250477;28;20047;-47
2023/02/05 17:07:30;;;;;;;8.75;7.88;;;;;;;6.44;84.37;102064.00;10254702;28;20046;-48
2023/02/05 17:12:32;;;;;;;9.20;8.40;;;;;;;6.32;85.59;102062.66;10259617;28;20057;-46
2023/02/05 17:17:44;;;;;;;8.40;7.50;;;;;;;6.42;85.59;102072.91;10255793;28;20390;-47
2023/02/05 17:23:04;;;;;;;9.98;9.07;;;;;;;6.41;86.00;102082.63;10253885;28;20110;-52
2023/02/05 17:28:11;;;;;;;9.27;8.00;;;;;;;6.45;85.57;102094.81;10257604;28;20043;-47
2023/02/05 17:33:17;;;;;;;9.13;8.30;;;;;;;6.40;85.58;102083.53;10268016;28;20047;-46
2023/02/05 17:38:19;;;;;;;10.50;9.40;;;;;;;6.42;85.28;102092.28;10255998;28;20050;-47
2023/02/05 17:43:20;;;;;;;25.17;23.25;;;;;;;6.37;85.89;102103.03;10246497;28;20097;-54
2023/02/05 17:48:22;;;;;;;22.52;20.65;;;;;;;6.40;85.28;102110.00;10247669;28;20065;-49
2023/02/05 17:53:23;;;;;;;8.65;7.80;;;;;;;6.46;85.24;102106.28;10241972;28;20062;-48
2023/02/05 17:58:25;;;;;;;10.02;7.65;;;;;;;6.53;85.31;102113.06;10249154;28;20143;-49
2023/02/05 18:03:26;;;;;;;8.13;7.43;;;;;;;6.51;84.82;102136.09;10247952;28;20527;-49
2023/02/05 18:08:28;;;;;;;8.60;7.85;;;;;;;6.46;84.47;102135.41;10249700;28;20070;-48
2023/02/05 18:13:29;;;;;;;7.88;7.18;;;;;;;6.51;84.49;102134.28;10243432;28;20055;-47
2023/02/05 18:18:34;;;;;;;13.52;12.10;;;;;;;6.54;83.87;102136.88;10242416;28;20173;-48
2023/02/05 18:23:36;;;;;;;11.52;10.40;;;;;;;6.50;84.18;102137.00;10241864;28;20137;-48
2023/02/05 18:28:37;;;;;;;8.85;7.03;;;;;;;6.45;84.14;102138.94;10241128;28;20134;-47
2023/02/05 18:33:39;;;;;;;7.18;6.47;;;;;;;6.47;84.42;102147.69;10240681;28;20054;-48
2023/02/05 18:38:44;;;;;;;6.85;6.25;;;;;;;6.42;84.09;102141.69;10238440;28;20455;-47
2023/02/05 18:43:46;;;;;;;8.30;7.15;;;;;;;6.46;84.20;102167.13;10240261;28;20523;-48
2023/02/05 18:48:48;;;;;;;7.30;6.70;;;;;;;6.45;83.84;102163.59;10237751;28;20868;-47
2023/02/05 18:53:49;;;;;;;6.82;6.22;;;;;;;6.47;83.88;102167.09;10232509;28;20096;-46
2023/02/05 18:59:01;;;;;;;7.72;7.03;;;;;;;6.55;83.80;102172.13;10240300;28;20114;-46
2023/02/05 19:04:05;;;;;;;7.93;7.13;;;;;;;6.53;84.10;102181.88;10238477;28;20056;-47
2023/02/05 19:09:07;;;;;;;8.13;7.32;;;;;;;6.51;84.58;102181.06;10238488;28;20054;-47
2023/02/05 19:14:11;;;;;;;7.85;7.15;;;;;;;6.47;83.99;102176.78;10241613;28;20063;-47
2023/02/05 19:19:16;;;;;;;7.60;6.90;;;;;;;6.48;84.54;102183.81;10257928;28;20054;-46
2023/02/05 19:24:18;;;;;;;8.00;7.05;;;;;;;6.49;83.89;102185.56;10234644;28;20920;-47
2023/02/05 19:29:20;;;;;;;9.00;8.13;;;;;;;6.50;84.22;102201.38;10240650;28;20054;-47
2023/02/05 19:34:22;;;;;;;7.85;7.15;;;;;;;6.57;83.91;102212.63;10241150;28;20124;-47
2023/02/05 19:39:23;;;;;;;7.65;6.95;;;;;;;6.54;83.76;102220.66;10240187;28;20055;-46
2023/02/05 19:44:26;;;;;;;8.73;7.93;;;;;;;6.54;83.69;102225.94;10242019;28;20068;-47
2023/02/05 19:49:27;;;;;;;8.70;7.97;;;;;;;6.46;84.13;102207.69;10240158;28;20793;-47
2023/02/05 19:54:29;;;;;;;9.32;8.30;;;;;;;6.47;84.89;102219.13;10249944;28;20055;-47
2023/02/05 19:59:30;;;;;;;8.98;8.18;;;;;;;6.49;84.25;102217.31;10242013;28;20062;-47
2023/02/05 20:04:32;;;;;;;9.80;8.88;;;;;;;6.44;84.44;102208.63;10243396;28;20146;-47
2023/02/05 20:09:33;;;;;;;10.48;8.95;;;;;;;6.38;84.53;102222.94;10241456;28;20058;-48
2023/02/05 20:14:34;;;;;;;9.68;8.77;;;;;;;6.32;83.81;102221.34;10238616;28;20199;-47
2023/02/05 20:19:36;;;;;;;9.95;9.05;;;;;;;6.16;84.27;102241.25;10239526;28;20058;-47
2023/02/05 20:24:37;;;;;;;8.95;8.15;;;;;;;6.07;83.79;102241.53;10238301;28;20069;-47
2023/02/05 20:34:59;;;;;;;9.63;8.68;;;;;;;6.05;83.86;102253.91;10234768;28;20807;-47
2023/02/05 20:40:00;;;;;;;10.15;9.15;;;;;;;6.08;84.68;102254.69;10234267;28;20046;-47
2023/02/05 20:45:02;;;;;;;10.00;9.10;;;;;;;6.01;84.33;102264.56;10235095;28;20051;-48
2023/02/05 20:50:04;;;;;;;10.07;9.05;;;;;;;6.06;84.15;102264.44;10236137;28;20055;-46
2023/02/05 20:55:06;;;;;;;11.50;10.40;;;;;;;6.02;84.11;102276.03;10228321;28;20064;-48
2023/02/05 21:00:08;;;;;;;10.52;9.60;;;;;;;5.98;83.91;102275.25;10235715;28;20057;-48
2023/02/05 21:05:10;;;;;;;10.18;9.27;;;;;;;5.78;84.22;102245.81;10237937;28;20062;-46
2023/02/05 21:10:11;;;;;;;10.68;9.70;;;;;;;5.86;84.01;102270.28;10251034;28;20046;-47
2023/02/05 21:15:13;;;;;;;10.85;9.85;;;;;;;5.82;83.79;102269.50;10249497;28;20050;-47
2023/02/05 21:20:14;;;;;;;10.45;9.45;;;;;;;5.84;83.88;102282.69;10253008;28;20063;-47
2023/02/05 21:25:16;;;;;;;10.63;9.63;;;;;;;5.83;83.29;102302.09;10252869;28;20050;-46
2023/02/05 21:30:18;;;;;;;10.73;9.68;;;;;;;5.97;82.81;102314.94;10252347;28;20543;-46
2023/02/05 21:35:19;;;;;;;11.48;10.43;;;;;;;6.01;82.59;102313.94;10250442;28;20681;-47
2023/02/05 21:40:21;;;;;;;11.05;10.07;;;;;;;5.95;83.13;102312.31;10248604;28;20111;-47
2023/02/05 21:45:23;;;;;;;10.07;9.07;;;;;;;6.00;82.93;102315.75;10236241;28;20510;-47
2023/02/05 21:50:24;;;;;;;11.02;9.90;;;;;;;6.00;82.90;102315.75;10264419;28;20664;-47
2023/02/05 21:55:25;;;;;;;11.48;10.30;;;;;;;6.04;82.74;102331.50;10259164;28;20539;-47
2023/02/05 22:00:27;;;;;;;12.25;11.15;;;;;;;5.92;82.06;102333.53;10259297;28;20380;-46
2023/02/05 22:05:29;;;;;;;11.07;10.00;;;;;;;5.88;83.19;102342.47;10256746;28;20168;-47
2023/02/05 22:10:31;;;;;;;11.00;10.00;;;;;;;5.88;83.46;102336.31;10257266;28;20749;-47
2023/02/05 22:15:32;;;;;;;13.25;12.00;;;;;;;5.77;83.41;102328.69;10254543;28;20913;-48
2023/02/05 22:20:34;;;;;;;15.23;13.77;;;;;;;5.82;83.86;102342.63;10255364;28;20066;-47
2023/02/05 22:25:36;;;;;;;14.52;12.95;;;;;;;5.87;83.53;102350.44;10257215;28;20113;-48
2023/02/05 22:30:38;;;;;;;13.50;12.23;;;;;;;5.80;83.46;102360.31;10260648;28;20459;-48
2023/02/05 22:35:40;;;;;;;11.88;10.77;;;;;;;5.90;84.13;102377.66;10261035;28;20054;-46
2023/02/05 22:40:41;;;;;;;10.50;9.43;;;;;;;5.96;83.56;102372.22;10261772;28;20062;-47
2023/02/05 22:45:43;;;;;;;10.65;9.57;;;;;;;6.01;83.91;102374.75;10257165;28;20042;-48
2023/02/05 22:50:44;;;;;;;11.60;10.50;;;;;;;5.96;83.95;102377.50;10254427;28;20057;-47
2023/02/05 22:55:46;;;;;;;10.93;9.82;;;;;;;6.01;83.84;102380.03;10255334;28;21590;-47
2023/02/05 23:00:47;;;;;;;11.18;10.07;;;;;;;5.93;84.12;102372.28;10259524;28;20054;-47
2023/02/05 23:05:49;;;;;;;11.65;10.35;;;;;;;5.90;83.82;102388.25;10258384;28;20149;-47
2023/02/05 23:10:51;;;;;;;12.30;10.95;;;;;;;5.93;83.26;102382.88;10258766;28;20141;-47
2023/02/05 23:15:52;;;;;;;11.57;10.48;;;;;;;5.97;82.87;102395.09;10257388;28;20053;-47
2023/02/05 23:20:53;;;;;;;11.45;10.35;;;;;;;6.00;83.61;102392.41;10256309;28;20065;-47
2023/02/05 23:25:55;;;;;;;10.95;9.85;;;;;;;5.99;82.69;102389.78;10258870;28;20051;-47
2023/02/05 23:30:56;;;;;;;11.23;10.00;;;;;;;6.01;83.32;102382.69;10259411;28;20054;-47
2023/02/05 23:35:58;;;;;;;11.20;10.10;;;;;;;5.88;82.98;102379.47;10256556;28;20066;-47
2023/02/05 23:41:00;;;;;;;10.80;9.68;;;;;;;5.89;83.43;102391.78;10253136;28;21147;-48